Back to Top

Language: 

Current Local METAR Station Weather Reports...

Local METAR Reports

Local METAR Reports

 

EGCN - Doncaster Sheffield Airport, United Kingdom
Distance from station: E 20mi, 32km
Updated: Sat, 23-Jun-2018 4:20pm BST
Clear
Clear
 Wind from W
Wind: W 13 mph , 20 km/h
Temperature: 21°C
Dew Point: 4°C
Humidity: 33%
Barometer: 1027 hPa
Summary: Clear
Visibility: greater than 7 miles , 10 km
2018/06/23 15:20 EGCN 231520Z 28011KT 260V330 CAVOK 21/04 Q1027
EGNM - Leeds Bradford International, United Kingdom
Distance from station: NNW 24mi, 39km
Updated: Sat, 23-Jun-2018 4:20pm BST
Clear
Clear
 Wind from W
Wind: W 13 mph , 20 km/h
Temperature: 17°C
Dew Point: 8°C
Humidity: 56%
Barometer: 1027 hPa
Summary: Clear
Visibility: greater than 7 miles , 10 km
2018/06/23 15:20 EGNM 231520Z 26011KT 220V280 CAVOK 17/08 Q1027
 
EGCC - Manchester International, United Kingdom
Distance from station: WSW 35mi, 56km
Updated: Sat, 23-Jun-2018 4:20pm BST
Clear
Clear
 Wind from WNW
Wind: WNW 10 mph , 17 km/h
Temperature: 19°C
Dew Point: 5°C
Humidity: 40%
Barometer: 1028 hPa
Clouds: Clear
Visibility: 6 miles , 10 km
2018/06/23 15:20 EGCC 231520Z AUTO 29009KT 260V320 9999 NCD 19/05 Q1028 NOSIG
EGXU - Linton-On-Ouse RAF, United Kingdom
Distance from station: NNE 37mi, 60km
Updated: Sat, 23-Jun-2018 3:50pm BST
Clear
Clear
 Wind from NW
Wind: NW 8 mph , 13 km/h
Temperature: 20°C
Dew Point: 7°C
Humidity: 43%
Barometer: 1026 hPa
Clouds: Clear
Visibility: 6 miles , 10 km
2018/06/23 14:50 EGXU 231450Z AUTO 31007KT 9999 // NCD 20/07 Q1026
 
EGXP - Scampton RAF, United Kingdom
Distance from station: ESE 41mi, 66km
Updated: Sat, 23-Jun-2018 3:50pm BST
Clear
Clear
 Wind from WNW
Wind: WNW 13 mph , 20 km/h
Temperature: 20°C
Dew Point: 5°C
Humidity: 38%
Barometer: 1026 hPa
Clouds: Clear
Visibility: 6 miles , 10 km
2018/06/23 14:50 EGXP 231450Z AUTO 29011KT 9999 // NCD 20/05 Q1026
EGNJ - Humberside Airport, United Kingdom
Distance from station: E 46mi, 74km
Updated: Sat, 23-Jun-2018 4:20pm BST
Few Clouds
Few Clouds
 Wind from ENE
Wind: ENE 9 mph , 15 km/h
Temperature: 19°C
Dew Point: 11°C
Humidity: 60%
Barometer: 1026 hPa
Clouds: Few Clouds
Visibility: 6 miles , 10 km
Cloud details: Few Clouds 1189 m
2018/06/23 15:20 EGNJ 231520Z 07008KT 030V110 9999 FEW039 19/11 Q1026
 
EGXW - Waddington RAF, United Kingdom
Distance from station: ESE 46mi, 74km
Updated: Sat, 23-Jun-2018 3:50pm BST
Clear
Clear
 Wind from WNW
Wind: WNW 10 mph , 17 km/h
Temperature: 20°C
Dew Point: 4°C
Humidity: 35%
Barometer: 1026 hPa
Summary: Clear
Visibility: greater than 7 miles , 10 km
2018/06/23 14:50 EGXW 231450Z 29009KT CAVOK 20/04 Q1026 BLU
EGXZ - Topcliffe RAF, United Kingdom
Distance from station: N 46mi, 75km
Updated: Sat, 23-Jun-2018 3:50pm BST
Partly Cloudy
Partly Cloudy
 Wind from WNW
Wind: WNW 10 mph , 17 km/h
Temperature: 20°C
Dew Point: 5°C
Humidity: 38%
Barometer: 1026 hPa
Clouds: Partly Cloudy
Visibility: 6 miles , 10 km
Cloud details: Partly Cloudy 5182 m
2018/06/23 14:50 EGXZ 231450Z AUTO 30009KT 9999 SCT170/// 20/05 Q1026
 
EGXV - Leconfield, United Kingdom
Distance from station: ENE 48mi, 77km
Updated: Sat, 23-Jun-2018 3:50pm BST
Clear
Clear
 Wind from E
Wind: E 9 mph , 15 km/h
Temperature: 18°C
Dew Point: 9°C
Humidity: 56%
Barometer: 1026 hPa
Clouds: Clear
Visibility: 6 miles , 10 km
2018/06/23 14:50 EGXV 231450Z AUTO 08008KT 9999 NCD 18/09 Q1026
EGNX - East Midlands, United Kingdom
Distance from station: S 50mi, 80km
Updated: Sat, 23-Jun-2018 4:20pm BST
Clear
Clear
 Wind from W
Wind: W 13 mph , 20 km/h
Temperature: 20°C
Dew Point: 7°C
Humidity: 43%
Barometer: 1027 hPa
Summary: Clear
Visibility: greater than 7 miles , 10 km
2018/06/23 15:20 EGNX 231520Z 28011KT CAVOK 20/07 Q1027

Metar display script from Saratoga-Weather.org

Data updates at regular intervals.